EDT,Max TemperatureF,Mean TemperatureF,Min TemperatureF,Max Dew PointF,MeanDew PointF,Min DewpointF,Max Humidity, Mean Humidity, Min Humidity, Max Sea Level PressureIn, Mean Sea Level PressureIn, Min Sea Level PressureIn, Max VisibilityMiles, Mean VisibilityMiles, Min VisibilityMiles, Max Wind SpeedMPH, Mean Wind SpeedMPH, Max Gust SpeedMPH,PrecipitationIn, CloudCover, Events, WindDirDegrees
2013-7-1,78,67,56,52,47,40,72,54,35,30.12,30.06,30.00,10,10,10,26,12,36,0.00,6,,45
2013-7-2,71,64,57,61,53,40,86,65,43,30.10,30.08,30.04,10,10,6,12,8,,0.17,8,Rain,37
2013-7-3,82,71,60,65,60,51,87,69,51,30.10,30.07,30.03,10,9,5,16,8,21,0.02,6,,97
2013-7-4,80,71,62,63,61,56,93,69,45,30.14,30.11,30.07,10,7,2,13,6,17,0.00,6,,217
2013-7-5,85,75,64,63,60,57,87,64,40,30.12,30.08,30.04,10,8,3,12,4,17,0.00,4,,187
2013-7-6,86,77,67,66,65,62,87,68,48,30.09,30.05,29.99,10,9,4,13,5,,0.00,6,,201
2013-7-7,88,80,71,68,66,63,84,65,46,30.04,30.00,29.95,10,8,3,17,7,20,T,7,,230
2013-7-8,80,76,71,70,68,66,93,80,67,30.02,29.98,29.96,10,9,4,24,9,77,0.02,7,Rain,211
2013-7-9,88,79,69,73,69,64,90,70,50,30.01,29.95,29.86,10,5,1,18,5,24,0.30,6,Rain-Thunderstorm,239
2013-7-10,84,74,63,73,65,52,88,65,42,30.03,29.86,29.81,10,8,3,23,11,29,0.00,3,,279
2013-7-11,82,71,60,57,55,51,84,60,36,30.08,30.05,29.99,10,10,10,18,5,24,0.00,1,,353
2013-7-12,82,70,57,58,55,51,86,61,36,30.19,30.14,30.09,10,10,10,21,5,,0.00,1,,81
2013-7-13,86,73,60,63,58,53,90,62,34,30.20,30.18,30.14,10,10,8,15,5,23,0.00,2,,97
2013-7-14,91,78,64,68,64,59,87,66,44,30.26,30.23,30.21,10,10,10,12,5,21,0.00,1,,118
2013-7-15,95,83,71,75,71,68,94,70,46,30.30,30.27,30.23,10,9,3,18,4,23,0.83,4,Rain-Thunderstorm,105
2013-7-16,93,84,74,74,71,67,93,69,44,30.32,30.28,30.25,10,10,9,15,6,18,0.00,2,,236
2013-7-17,95,85,75,74,71,69,85,66,46,30.30,30.24,30.17,10,9,5,18,8,22,0.00,2,,252
2013-7-18,95,86,76,73,71,68,82,62,42,30.17,30.07,29.94,10,10,7,20,9,25,0.00,1,,242
2013-7-19,96,87,78,72,70,66,74,57,39,29.94,29.81,29.72,10,10,2,41,15,54,0.11,4,Rain-Thunderstorm,239
2013-7-20,88,77,66,70,61,54,84,58,32,29.96,29.85,29.74,10,10,10,17,7,22,0.00,4,,339
2013-7-21,83,71,59,67,58,49,93,69,45,30.03,29.98,29.92,10,9,1,25,6,30,0.90,6,Rain-Thunderstorm,65
2013-7-22,85,76,66,66,64,63,93,72,51,30.00,29.85,29.76,10,10,3,13,6,17,0.01,5,Rain-Thunderstorm,171
2013-7-23,81,69,56,68,61,47,90,68,45,29.95,29.77,29.68,10,10,9,24,12,25,0.02,4,Rain,296
2013-7-24,75,63,51,52,48,46,83,61,38,30.07,30.03,29.98,10,10,10,10,5,23,0.00,3,,33
2013-7-25,79,66,53,55,52,48,89,64,38,30.12,30.09,30.06,10,10,10,12,4,16,0.00,3,,188
2013-7-26,78,69,60,63,59,55,90,72,54,30.06,29.99,29.89,10,8,2,17,8,21,0.32,7,Rain,190
2013-7-27,72,63,54,63,57,46,93,75,56,29.89,29.85,29.82,10,8,0,21,9,26,T,6,Fog-Rain,265
2013-7-28,67,60,53,54,52,47,93,73,52,29.97,29.88,29.82,10,9,2,21,10,25,0.29,7,Rain,227
2013-7-29,71,64,56,55,54,52,93,73,53,30.21,30.08,29.97,10,9,2,14,7,18,0.06,7,Rain,274
2013-7-30,79,65,50,60,54,48,93,68,43,30.25,30.19,30.12,10,10,10,10,4,14,T,4,Fog,170
2013-7-31,72,68,64,65,62,58,93,83,73,30.12,30.03,29.93,10,7,2,10,5,14,0.16,8,Rain,60